Terminal Aerodrome Forecast
Issued by NWS

Home | Current Version | Previous Version | Text Only | Print | Product List | Glossary On
Versions: 1 2 3 4 5 6 7 8 9 10 11 12 13 14 15 16 17 18 19 20 21 22 23
000
FTUS45 KPSR 282341
TAFSDL
TAF
KSDL 282341Z 2900/2924 23007KT P6SM SCT110 SCT200
     FM290700 VRB04KT P6SM SCT100 BKN150
     FM291800 24007KT P6SM SCT100 SCT150 BKN200=

USA.gov is the U.S. government's official web portal to all federal, state and local government web resources and services.